sensor_id;sensor_type;location;lat;lon;timestamp;temperature;humidity
78315;SHT31;68596;52.080;4.662;2024-02-21T00:01:41;11.28;77.58
78315;SHT31;68596;52.080;4.662;2024-02-21T00:04:25;11.25;77.57
78315;SHT31;68596;52.080;4.662;2024-02-21T00:07:09;11.25;77.34
78315;SHT31;68596;52.080;4.662;2024-02-21T00:09:53;11.25;77.54
78315;SHT31;68596;52.080;4.662;2024-02-21T00:12:37;11.28;77.45
78315;SHT31;68596;52.080;4.662;2024-02-21T00:15:21;11.35;77.41
78315;SHT31;68596;52.080;4.662;2024-02-21T00:18:06;11.34;77.36
78315;SHT31;68596;52.080;4.662;2024-02-21T00:20:50;11.32;77.34
78315;SHT31;68596;52.080;4.662;2024-02-21T00:23:34;11.32;77.40
78315;SHT31;68596;52.080;4.662;2024-02-21T00:26:19;11.37;77.29
78315;SHT31;68596;52.080;4.662;2024-02-21T00:29:03;11.42;77.16
78315;SHT31;68596;52.080;4.662;2024-02-21T00:31:48;11.41;77.20
78315;SHT31;68596;52.080;4.662;2024-02-21T00:34:33;11.42;77.30
78315;SHT31;68596;52.080;4.662;2024-02-21T00:37:17;11.42;77.33
78315;SHT31;68596;52.080;4.662;2024-02-21T00:40:01;11.44;77.35
78315;SHT31;68596;52.080;4.662;2024-02-21T00:42:45;11.44;77.34
78315;SHT31;68596;52.080;4.662;2024-02-21T00:45:29;11.41;77.36
78315;SHT31;68596;52.080;4.662;2024-02-21T00:48:13;11.44;77.31
78315;SHT31;68596;52.080;4.662;2024-02-21T00:50:57;11.47;77.27
78315;SHT31;68596;52.080;4.662;2024-02-21T00:53:42;11.41;77.23
78315;SHT31;68596;52.080;4.662;2024-02-21T00:56:27;11.42;77.29
78315;SHT31;68596;52.080;4.662;2024-02-21T00:59:11;11.50;77.30
78315;SHT31;68596;52.080;4.662;2024-02-21T01:01:55;11.44;77.26
78315;SHT31;68596;52.080;4.662;2024-02-21T01:04:39;11.41;77.34
78315;SHT31;68596;52.080;4.662;2024-02-21T01:07:23;11.34;77.47
78315;SHT31;68596;52.080;4.662;2024-02-21T01:10:08;11.31;77.52
78315;SHT31;68596;52.080;4.662;2024-02-21T01:12:52;11.38;77.59
78315;SHT31;68596;52.080;4.662;2024-02-21T01:15:36;11.37;77.54
78315;SHT31;68596;52.080;4.662;2024-02-21T01:18:20;11.41;77.34
78315;SHT31;68596;52.080;4.662;2024-02-21T01:21:05;11.48;77.39
78315;SHT31;68596;52.080;4.662;2024-02-21T01:23:53;11.47;77.19
78315;SHT31;68596;52.080;4.662;2024-02-21T01:26:37;11.51;77.08
78315;SHT31;68596;52.080;4.662;2024-02-21T01:29:21;11.52;77.05
78315;SHT31;68596;52.080;4.662;2024-02-21T01:32:05;11.52;77.00
78315;SHT31;68596;52.080;4.662;2024-02-21T01:34:51;11.54;77.11
78315;SHT31;68596;52.080;4.662;2024-02-21T01:37:35;11.51;77.07
78315;SHT31;68596;52.080;4.662;2024-02-21T01:40:19;11.52;77.02
78315;SHT31;68596;52.080;4.662;2024-02-21T01:43:03;11.50;77.13
78315;SHT31;68596;52.080;4.662;2024-02-21T01:45:50;11.55;77.14
78315;SHT31;68596;52.080;4.662;2024-02-21T01:48:35;11.55;77.08
78315;SHT31;68596;52.080;4.662;2024-02-21T01:51:20;11.59;76.98
78315;SHT31;68596;52.080;4.662;2024-02-21T01:54:04;11.48;77.06
78315;SHT31;68596;52.080;4.662;2024-02-21T01:56:48;11.50;77.04
78315;SHT31;68596;52.080;4.662;2024-02-21T01:59:32;11.52;77.01
78315;SHT31;68596;52.080;4.662;2024-02-21T02:02:17;11.52;77.08
78315;SHT31;68596;52.080;4.662;2024-02-21T02:05:02;11.54;76.99
78315;SHT31;68596;52.080;4.662;2024-02-21T02:07:47;11.54;76.97
78315;SHT31;68596;52.080;4.662;2024-02-21T02:10:31;11.55;77.08
78315;SHT31;68596;52.080;4.662;2024-02-21T02:13:15;11.54;77.00
78315;SHT31;68596;52.080;4.662;2024-02-21T02:16:00;11.54;76.95
78315;SHT31;68596;52.080;4.662;2024-02-21T02:18:45;11.51;77.04
78315;SHT31;68596;52.080;4.662;2024-02-21T02:21:30;11.50;77.12
78315;SHT31;68596;52.080;4.662;2024-02-21T02:24:17;11.51;77.11
78315;SHT31;68596;52.080;4.662;2024-02-21T02:27:01;11.52;77.22
78315;SHT31;68596;52.080;4.662;2024-02-21T02:29:45;11.55;76.96
78315;SHT31;68596;52.080;4.662;2024-02-21T02:32:29;11.55;76.99
78315;SHT31;68596;52.080;4.662;2024-02-21T02:35:13;11.54;76.90
78315;SHT31;68596;52.080;4.662;2024-02-21T02:37:58;11.59;76.90
78315;SHT31;68596;52.080;4.662;2024-02-21T02:40:42;11.57;76.95
78315;SHT31;68596;52.080;4.662;2024-02-21T02:43:26;11.62;76.77
78315;SHT31;68596;52.080;4.662;2024-02-21T02:46:10;11.58;76.80
78315;SHT31;68596;52.080;4.662;2024-02-21T02:48:54;11.61;76.93
78315;SHT31;68596;52.080;4.662;2024-02-21T02:51:42;11.55;76.84
78315;SHT31;68596;52.080;4.662;2024-02-21T02:54:27;11.54;76.84
78315;SHT31;68596;52.080;4.662;2024-02-21T02:57:11;11.55;76.91
78315;SHT31;68596;52.080;4.662;2024-02-21T02:59:55;11.52;76.87
78315;SHT31;68596;52.080;4.662;2024-02-21T03:02:41;11.55;76.95
78315;SHT31;68596;52.080;4.662;2024-02-21T03:05:25;11.54;76.83
78315;SHT31;68596;52.080;4.662;2024-02-21T03:08:09;11.58;76.79
78315;SHT31;68596;52.080;4.662;2024-02-21T03:10:54;11.58;76.77
78315;SHT31;68596;52.080;4.662;2024-02-21T03:13:38;11.55;76.70
78315;SHT31;68596;52.080;4.662;2024-02-21T03:16:22;11.54;76.75
78315;SHT31;68596;52.080;4.662;2024-02-21T03:19:06;11.57;76.76
78315;SHT31;68596;52.080;4.662;2024-02-21T03:21:51;11.58;76.56
78315;SHT31;68596;52.080;4.662;2024-02-21T03:24:35;11.55;76.57
78315;SHT31;68596;52.080;4.662;2024-02-21T03:27:19;11.52;76.67
78315;SHT31;68596;52.080;4.662;2024-02-21T03:30:04;11.55;76.66
78315;SHT31;68596;52.080;4.662;2024-02-21T03:32:48;11.47;76.62
78315;SHT31;68596;52.080;4.662;2024-02-21T03:35:33;11.54;76.62
78315;SHT31;68596;52.080;4.662;2024-02-21T03:38:17;11.55;76.63
78315;SHT31;68596;52.080;4.662;2024-02-21T03:41:03;11.57;76.57
78315;SHT31;68596;52.080;4.662;2024-02-21T03:43:47;11.57;76.61
78315;SHT31;68596;52.080;4.662;2024-02-21T03:46:31;11.57;76.62
78315;SHT31;68596;52.080;4.662;2024-02-21T03:49:16;11.58;76.68
78315;SHT31;68596;52.080;4.662;2024-02-21T03:52:00;11.51;76.58
78315;SHT31;68596;52.080;4.662;2024-02-21T03:54:44;11.52;76.70
78315;SHT31;68596;52.080;4.662;2024-02-21T03:57:28;11.52;76.65
78315;SHT31;68596;52.080;4.662;2024-02-21T04:00:15;11.48;76.53
78315;SHT31;68596;52.080;4.662;2024-02-21T04:02:58;11.48;76.49
78315;SHT31;68596;52.080;4.662;2024-02-21T04:05:43;11.50;76.61
78315;SHT31;68596;52.080;4.662;2024-02-21T04:08:27;11.47;76.64
78315;SHT31;68596;52.080;4.662;2024-02-21T04:11:11;11.54;76.48
78315;SHT31;68596;52.080;4.662;2024-02-21T04:13:55;11.55;76.32
78315;SHT31;68596;52.080;4.662;2024-02-21T04:16:39;11.54;76.21
78315;SHT31;68596;52.080;4.662;2024-02-21T04:19:23;11.54;76.23
78315;SHT31;68596;52.080;4.662;2024-02-21T04:22:07;11.55;76.11
78315;SHT31;68596;52.080;4.662;2024-02-21T04:24:51;11.52;76.19
78315;SHT31;68596;52.080;4.662;2024-02-21T04:27:35;11.47;76.25
78315;SHT31;68596;52.080;4.662;2024-02-21T04:30:19;11.48;76.25
78315;SHT31;68596;52.080;4.662;2024-02-21T04:33:04;11.50;76.21
78315;SHT31;68596;52.080;4.662;2024-02-21T04:35:47;11.51;76.33
78315;SHT31;68596;52.080;4.662;2024-02-21T04:38:31;11.48;76.32
78315;SHT31;68596;52.080;4.662;2024-02-21T04:41:15;11.47;76.29
78315;SHT31;68596;52.080;4.662;2024-02-21T04:43:59;11.47;76.34
78315;SHT31;68596;52.080;4.662;2024-02-21T04:46:43;11.47;76.20
78315;SHT31;68596;52.080;4.662;2024-02-21T04:49:27;11.45;76.29
78315;SHT31;68596;52.080;4.662;2024-02-21T04:52:12;11.42;76.43
78315;SHT31;68596;52.080;4.662;2024-02-21T04:54:56;11.44;76.32
78315;SHT31;68596;52.080;4.662;2024-02-21T04:57:40;11.44;76.31
78315;SHT31;68596;52.080;4.662;2024-02-21T05:00:24;11.44;76.26
78315;SHT31;68596;52.080;4.662;2024-02-21T05:03:08;11.42;76.24
78315;SHT31;68596;52.080;4.662;2024-02-21T05:05:52;11.42;76.30
78315;SHT31;68596;52.080;4.662;2024-02-21T05:08:36;11.47;76.12
78315;SHT31;68596;52.080;4.662;2024-02-21T05:11:21;11.47;76.09
78315;SHT31;68596;52.080;4.662;2024-02-21T05:14:05;11.51;76.11
78315;SHT31;68596;52.080;4.662;2024-02-21T05:16:50;11.51;75.81
78315;SHT31;68596;52.080;4.662;2024-02-21T05:19:34;11.52;75.69
78315;SHT31;68596;52.080;4.662;2024-02-21T05:22:18;11.50;75.78
78315;SHT31;68596;52.080;4.662;2024-02-21T05:25:02;11.54;75.80
78315;SHT31;68596;52.080;4.662;2024-02-21T05:27:46;11.57;75.55
78315;SHT31;68596;52.080;4.662;2024-02-21T05:30:30;11.57;75.68
78315;SHT31;68596;52.080;4.662;2024-02-21T05:33:14;11.55;75.61
78315;SHT31;68596;52.080;4.662;2024-02-21T05:36:05;11.54;75.71
78315;SHT31;68596;52.080;4.662;2024-02-21T05:38:49;11.50;75.68
78315;SHT31;68596;52.080;4.662;2024-02-21T05:41:33;11.45;75.75
78315;SHT31;68596;52.080;4.662;2024-02-21T05:44:18;11.44;76.07
78315;SHT31;68596;52.080;4.662;2024-02-21T05:47:03;11.45;75.85
78315;SHT31;68596;52.080;4.662;2024-02-21T05:49:48;11.44;75.95
78315;SHT31;68596;52.080;4.662;2024-02-21T05:52:33;11.47;75.87
78315;SHT31;68596;52.080;4.662;2024-02-21T05:55:17;11.41;75.79
78315;SHT31;68596;52.080;4.662;2024-02-21T05:58:03;11.47;75.75
78315;SHT31;68596;52.080;4.662;2024-02-21T06:00:47;11.44;75.86
78315;SHT31;68596;52.080;4.662;2024-02-21T06:03:33;11.48;75.62
78315;SHT31;68596;52.080;4.662;2024-02-21T06:06:19;11.45;75.65
78315;SHT31;68596;52.080;4.662;2024-02-21T06:09:05;11.48;75.54
78315;SHT31;68596;52.080;4.662;2024-02-21T06:11:50;11.50;75.54
78315;SHT31;68596;52.080;4.662;2024-02-21T06:14:34;11.45;75.68
78315;SHT31;68596;52.080;4.662;2024-02-21T06:17:19;11.44;75.70
78315;SHT31;68596;52.080;4.662;2024-02-21T06:20:03;11.41;75.75
78315;SHT31;68596;52.080;4.662;2024-02-21T06:22:48;11.42;75.90
78315;SHT31;68596;52.080;4.662;2024-02-21T06:25:32;11.42;75.92
78315;SHT31;68596;52.080;4.662;2024-02-21T06:28:17;11.45;75.90
78315;SHT31;68596;52.080;4.662;2024-02-21T06:31:01;11.41;76.04
78315;SHT31;68596;52.080;4.662;2024-02-21T06:33:45;11.45;76.11
78315;SHT31;68596;52.080;4.662;2024-02-21T06:36:29;11.47;75.97
78315;SHT31;68596;52.080;4.662;2024-02-21T06:39:13;11.45;75.74
78315;SHT31;68596;52.080;4.662;2024-02-21T06:41:58;11.47;75.75
78315;SHT31;68596;52.080;4.662;2024-02-21T06:44:42;11.45;75.82
78315;SHT31;68596;52.080;4.662;2024-02-21T06:47:26;11.42;75.72
78315;SHT31;68596;52.080;4.662;2024-02-21T06:50:10;11.45;75.68
78315;SHT31;68596;52.080;4.662;2024-02-21T06:52:54;11.44;75.48
78315;SHT31;68596;52.080;4.662;2024-02-21T06:55:38;11.42;75.57
78315;SHT31;68596;52.080;4.662;2024-02-21T06:58:23;11.41;75.64
78315;SHT31;68596;52.080;4.662;2024-02-21T07:01:07;11.45;75.56
78315;SHT31;68596;52.080;4.662;2024-02-21T07:03:51;11.44;75.60
78315;SHT31;68596;52.080;4.662;2024-02-21T07:06:35;11.42;75.54
78315;SHT31;68596;52.080;4.662;2024-02-21T07:09:20;11.45;75.45
78315;SHT31;68596;52.080;4.662;2024-02-21T07:12:04;11.45;75.52
78315;SHT31;68596;52.080;4.662;2024-02-21T07:14:49;11.44;75.39
78315;SHT31;68596;52.080;4.662;2024-02-21T07:17:33;11.39;75.37
78315;SHT31;68596;52.080;4.662;2024-02-21T07:20:17;11.44;75.48
78315;SHT31;68596;52.080;4.662;2024-02-21T07:23:01;11.42;75.57
78315;SHT31;68596;52.080;4.662;2024-02-21T07:25:45;11.41;75.53
78315;SHT31;68596;52.080;4.662;2024-02-21T07:28:29;11.37;75.32
78315;SHT31;68596;52.080;4.662;2024-02-21T07:31:13;11.39;75.28
78315;SHT31;68596;52.080;4.662;2024-02-21T07:33:57;11.39;75.32
78315;SHT31;68596;52.080;4.662;2024-02-21T07:36:41;11.41;75.29
78315;SHT31;68596;52.080;4.662;2024-02-21T07:39:26;11.42;75.20
78315;SHT31;68596;52.080;4.662;2024-02-21T07:42:10;11.39;75.07
78315;SHT31;68596;52.080;4.662;2024-02-21T07:44:54;11.38;75.16
78315;SHT31;68596;52.080;4.662;2024-02-21T07:47:40;11.35;75.31
78315;SHT31;68596;52.080;4.662;2024-02-21T07:50:25;11.32;75.59
78315;SHT31;68596;52.080;4.662;2024-02-21T07:53:09;11.28;75.65
78315;SHT31;68596;52.080;4.662;2024-02-21T07:55:53;11.31;75.64
78315;SHT31;68596;52.080;4.662;2024-02-21T07:58:37;11.27;75.41
78315;SHT31;68596;52.080;4.662;2024-02-21T08:01:21;11.31;75.37
78315;SHT31;68596;52.080;4.662;2024-02-21T08:04:05;11.32;75.28
78315;SHT31;68596;52.080;4.662;2024-02-21T08:06:54;11.32;75.26
78315;SHT31;68596;52.080;4.662;2024-02-21T08:09:40;11.35;75.28
78315;SHT31;68596;52.080;4.662;2024-02-21T08:12:24;11.35;75.44
78315;SHT31;68596;52.080;4.662;2024-02-21T08:15:08;11.37;75.25
78315;SHT31;68596;52.080;4.662;2024-02-21T08:17:55;11.38;75.16
78315;SHT31;68596;52.080;4.662;2024-02-21T08:20:43;11.39;75.12
78315;SHT31;68596;52.080;4.662;2024-02-21T08:23:27;11.42;75.13
78315;SHT31;68596;52.080;4.662;2024-02-21T08:26:11;11.44;75.05
78315;SHT31;68596;52.080;4.662;2024-02-21T08:28:58;11.42;74.84
78315;SHT31;68596;52.080;4.662;2024-02-21T08:31:44;11.37;75.00
78315;SHT31;68596;52.080;4.662;2024-02-21T08:34:28;11.39;74.91
78315;SHT31;68596;52.080;4.662;2024-02-21T08:37:14;11.42;74.85
78315;SHT31;68596;52.080;4.662;2024-02-21T08:39:58;11.39;74.81
78315;SHT31;68596;52.080;4.662;2024-02-21T08:42:42;11.39;74.77
78315;SHT31;68596;52.080;4.662;2024-02-21T08:45:26;11.39;74.84
78315;SHT31;68596;52.080;4.662;2024-02-21T08:48:10;11.38;74.81
78315;SHT31;68596;52.080;4.662;2024-02-21T08:50:54;11.41;74.80
78315;SHT31;68596;52.080;4.662;2024-02-21T08:53:38;11.41;74.74
78315;SHT31;68596;52.080;4.662;2024-02-21T08:56:22;11.45;74.49
78315;SHT31;68596;52.080;4.662;2024-02-21T08:59:06;11.47;74.38
78315;SHT31;68596;52.080;4.662;2024-02-21T09:01:51;11.47;74.32
78315;SHT31;68596;52.080;4.662;2024-02-21T09:04:36;11.51;74.33
78315;SHT31;68596;52.080;4.662;2024-02-21T09:07:20;11.52;74.33
78315;SHT31;68596;52.080;4.662;2024-02-21T09:10:04;11.55;74.06
78315;SHT31;68596;52.080;4.662;2024-02-21T09:12:49;11.54;73.99
78315;SHT31;68596;52.080;4.662;2024-02-21T09:15:33;11.52;73.96
78315;SHT31;68596;52.080;4.662;2024-02-21T09:18:17;11.52;74.01
78315;SHT31;68596;52.080;4.662;2024-02-21T09:21:01;11.54;73.89
78315;SHT31;68596;52.080;4.662;2024-02-21T09:23:46;11.54;74.10
78315;SHT31;68596;52.080;4.662;2024-02-21T09:26:30;11.54;73.87
78315;SHT31;68596;52.080;4.662;2024-02-21T09:29:14;11.55;73.92
78315;SHT31;68596;52.080;4.662;2024-02-21T09:32:00;11.58;73.96
78315;SHT31;68596;52.080;4.662;2024-02-21T09:34:44;11.61;73.82
78315;SHT31;68596;52.080;4.662;2024-02-21T09:37:29;11.64;73.54
78315;SHT31;68596;52.080;4.662;2024-02-21T09:40:15;11.67;73.56
78315;SHT31;68596;52.080;4.662;2024-02-21T09:43:04;11.69;73.32
78315;SHT31;68596;52.080;4.662;2024-02-21T09:45:55;11.69;73.32
78315;SHT31;68596;52.080;4.662;2024-02-21T09:51:56;11.72;73.33
78315;SHT31;68596;52.080;4.662;2024-02-21T09:54:41;11.76;73.31
78315;SHT31;68596;52.080;4.662;2024-02-21T09:57:28;11.76;73.12
78315;SHT31;68596;52.080;4.662;2024-02-21T10:00:13;11.75;73.15
78315;SHT31;68596;52.080;4.662;2024-02-21T10:03:05;11.79;72.96
78315;SHT31;68596;52.080;4.662;2024-02-21T10:05:51;11.83;73.06
78315;SHT31;68596;52.080;4.662;2024-02-21T10:08:36;11.86;72.57
78315;SHT31;68596;52.080;4.662;2024-02-21T10:11:24;11.89;72.76
78315;SHT31;68596;52.080;4.662;2024-02-21T10:14:08;11.89;72.73
78315;SHT31;68596;52.080;4.662;2024-02-21T10:16:58;11.90;72.48
78315;SHT31;68596;52.080;4.662;2024-02-21T10:19:46;11.89;72.38
78315;SHT31;68596;52.080;4.662;2024-02-21T10:22:31;11.89;72.34
78315;SHT31;68596;52.080;4.662;2024-02-21T10:25:20;11.92;72.19
78315;SHT31;68596;52.080;4.662;2024-02-21T10:28:05;11.96;72.21
78315;SHT31;68596;52.080;4.662;2024-02-21T10:30:50;11.99;71.99
78315;SHT31;68596;52.080;4.662;2024-02-21T10:33:35;12.00;71.82
78315;SHT31;68596;52.080;4.662;2024-02-21T10:36:19;12.00;71.93
78315;SHT31;68596;52.080;4.662;2024-02-21T10:39:03;11.95;71.46
78315;SHT31;68596;52.080;4.662;2024-02-21T10:41:47;11.90;71.93
78315;SHT31;68596;52.080;4.662;2024-02-21T10:44:33;11.86;72.39
78315;SHT31;68596;52.080;4.662;2024-02-21T10:47:20;11.88;72.49
78315;SHT31;68596;52.080;4.662;2024-02-21T10:50:07;11.86;72.62
78315;SHT31;68596;52.080;4.662;2024-02-21T10:53:47;11.90;72.27
78315;SHT31;68596;52.080;4.662;2024-02-21T10:56:31;11.85;72.28
78315;SHT31;68596;52.080;4.662;2024-02-21T10:59:17;11.83;72.25
78315;SHT31;68596;52.080;4.662;2024-02-21T11:02:01;11.86;72.13
78315;SHT31;68596;52.080;4.662;2024-02-21T11:04:49;11.86;71.97
78315;SHT31;68596;52.080;4.662;2024-02-21T11:07:37;11.86;71.98
78315;SHT31;68596;52.080;4.662;2024-02-21T11:10:26;11.88;71.82
78315;SHT31;68596;52.080;4.662;2024-02-21T11:13:10;11.88;72.26
78315;SHT31;68596;52.080;4.662;2024-02-21T11:16:08;11.92;72.32
78315;SHT31;68596;52.080;4.662;2024-02-21T11:19:04;11.89;71.48
78315;SHT31;68596;52.080;4.662;2024-02-21T11:21:53;11.96;71.33
78315;SHT31;68596;52.080;4.662;2024-02-21T11:24:37;12.05;71.24
78315;SHT31;68596;52.080;4.662;2024-02-21T11:27:23;12.09;71.25
78315;SHT31;68596;52.080;4.662;2024-02-21T11:30:12;12.16;71.19
78315;SHT31;68596;52.080;4.662;2024-02-21T11:33:06;12.20;70.29
78315;SHT31;68596;52.080;4.662;2024-02-21T11:35:50;12.28;70.42
78315;SHT31;68596;52.080;4.662;2024-02-21T11:38:37;12.34;70.45
78315;SHT31;68596;52.080;4.662;2024-02-21T11:41:21;12.40;70.29
78315;SHT31;68596;52.080;4.662;2024-02-21T11:44:05;12.43;70.05
78315;SHT31;68596;52.080;4.662;2024-02-21T11:46:49;12.41;69.98
78315;SHT31;68596;52.080;4.662;2024-02-21T11:49:38;12.50;69.91
78315;SHT31;68596;52.080;4.662;2024-02-21T11:52:26;12.56;69.35
78315;SHT31;68596;52.080;4.662;2024-02-21T11:55:11;12.51;69.78
78315;SHT31;68596;52.080;4.662;2024-02-21T11:57:55;12.60;69.43
78315;SHT31;68596;52.080;4.662;2024-02-21T12:00:40;12.63;69.41
78315;SHT31;68596;52.080;4.662;2024-02-21T12:03:24;12.64;69.02
78315;SHT31;68596;52.080;4.662;2024-02-21T12:06:09;12.60;68.92
78315;SHT31;68596;52.080;4.662;2024-02-21T12:08:58;12.60;68.80
78315;SHT31;68596;52.080;4.662;2024-02-21T12:11:43;12.54;68.76
78315;SHT31;68596;52.080;4.662;2024-02-21T12:14:29;12.56;68.76
78315;SHT31;68596;52.080;4.662;2024-02-21T12:17:14;12.49;68.58
78315;SHT31;68596;52.080;4.662;2024-02-21T12:19:58;12.47;68.80
78315;SHT31;68596;52.080;4.662;2024-02-21T12:22:42;12.37;69.91
78315;SHT31;68596;52.080;4.662;2024-02-21T12:25:28;12.36;69.83
78315;SHT31;68596;52.080;4.662;2024-02-21T12:28:12;12.36;69.43
78315;SHT31;68596;52.080;4.662;2024-02-21T12:30:56;12.34;69.45
78315;SHT31;68596;52.080;4.662;2024-02-21T12:33:40;12.34;69.79
78315;SHT31;68596;52.080;4.662;2024-02-21T12:36:24;12.28;70.14
78315;SHT31;68596;52.080;4.662;2024-02-21T12:39:09;12.30;69.73
78315;SHT31;68596;52.080;4.662;2024-02-21T12:41:53;12.22;70.21
78315;SHT31;68596;52.080;4.662;2024-02-21T12:44:38;12.20;70.03
78315;SHT31;68596;52.080;4.662;2024-02-21T12:47:22;12.15;70.44
78315;SHT31;68596;52.080;4.662;2024-02-21T12:50:08;12.10;70.70
78315;SHT31;68596;52.080;4.662;2024-02-21T12:52:53;12.08;71.04
78315;SHT31;68596;52.080;4.662;2024-02-21T12:55:37;12.10;70.75
78315;SHT31;68596;52.080;4.662;2024-02-21T12:58:22;12.08;71.06
78315;SHT31;68596;52.080;4.662;2024-02-21T13:01:06;11.98;71.24
78315;SHT31;68596;52.080;4.662;2024-02-21T13:03:50;11.96;71.00
78315;SHT31;68596;52.080;4.662;2024-02-21T13:06:34;11.88;71.50
78315;SHT31;68596;52.080;4.662;2024-02-21T13:09:20;11.83;71.80
78315;SHT31;68596;52.080;4.662;2024-02-21T13:12:05;11.81;71.78
78315;SHT31;68596;52.080;4.662;2024-02-21T13:14:49;11.74;71.74
78315;SHT31;68596;52.080;4.662;2024-02-21T13:17:33;11.78;71.90
78315;SHT31;68596;52.080;4.662;2024-02-21T13:20:17;11.74;71.93
78315;SHT31;68596;52.080;4.662;2024-02-21T13:23:02;11.78;71.98
78315;SHT31;68596;52.080;4.662;2024-02-21T13:25:46;11.81;71.64
78315;SHT31;68596;52.080;4.662;2024-02-21T13:28:31;11.82;71.71
78315;SHT31;68596;52.080;4.662;2024-02-21T13:31:15;11.75;71.33
78315;SHT31;68596;52.080;4.662;2024-02-21T13:34:00;11.74;72.09
78315;SHT31;68596;52.080;4.662;2024-02-21T13:36:44;11.76;71.87
78315;SHT31;68596;52.080;4.662;2024-02-21T13:39:29;11.78;71.78
78315;SHT31;68596;52.080;4.662;2024-02-21T13:42:13;11.75;72.05
78315;SHT31;68596;52.080;4.662;2024-02-21T13:44:57;11.79;71.67
78315;SHT31;68596;52.080;4.662;2024-02-21T13:47:41;11.81;71.53
78315;SHT31;68596;52.080;4.662;2024-02-21T13:50:30;11.79;71.31
78315;SHT31;68596;52.080;4.662;2024-02-21T13:53:15;11.79;71.40
78315;SHT31;68596;52.080;4.662;2024-02-21T13:55:59;11.81;71.40
78315;SHT31;68596;52.080;4.662;2024-02-21T13:58:44;11.85;71.26
78315;SHT31;68596;52.080;4.662;2024-02-21T14:01:28;11.85;71.31
78315;SHT31;68596;52.080;4.662;2024-02-21T14:04:13;11.75;71.71
78315;SHT31;68596;52.080;4.662;2024-02-21T14:06:57;11.75;71.98
78315;SHT31;68596;52.080;4.662;2024-02-21T14:09:41;11.75;72.22
78315;SHT31;68596;52.080;4.662;2024-02-21T14:12:25;11.74;72.51
78315;SHT31;68596;52.080;4.662;2024-02-21T14:15:10;11.72;72.20
78315;SHT31;68596;52.080;4.662;2024-02-21T14:17:54;11.67;72.36
78315;SHT31;68596;52.080;4.662;2024-02-21T14:20:39;11.55;72.61
78315;SHT31;68596;52.080;4.662;2024-02-21T14:23:23;11.52;73.25
78315;SHT31;68596;52.080;4.662;2024-02-21T14:26:07;11.54;73.19
78315;SHT31;68596;52.080;4.662;2024-02-21T14:28:52;11.48;73.35
78315;SHT31;68596;52.080;4.662;2024-02-21T14:31:36;11.48;73.66
78315;SHT31;68596;52.080;4.662;2024-02-21T14:34:20;11.42;73.72
78315;SHT31;68596;52.080;4.662;2024-02-21T14:37:04;11.48;74.09
78315;SHT31;68596;52.080;4.662;2024-02-21T14:39:49;11.54;74.08
78315;SHT31;68596;52.080;4.662;2024-02-21T14:42:33;11.51;74.13
78315;SHT31;68596;52.080;4.662;2024-02-21T14:45:19;11.50;74.30
78315;SHT31;68596;52.080;4.662;2024-02-21T14:48:04;11.47;74.41
78315;SHT31;68596;52.080;4.662;2024-02-21T14:50:49;11.41;74.69
78315;SHT31;68596;52.080;4.662;2024-02-21T14:53:33;11.37;74.94
78315;SHT31;68596;52.080;4.662;2024-02-21T14:56:17;11.34;75.30
78315;SHT31;68596;52.080;4.662;2024-02-21T14:59:02;11.34;75.46
78315;SHT31;68596;52.080;4.662;2024-02-21T15:01:47;11.31;75.65
78315;SHT31;68596;52.080;4.662;2024-02-21T15:04:31;11.32;75.96
78315;SHT31;68596;52.080;4.662;2024-02-21T15:07:16;11.34;76.09
78315;SHT31;68596;52.080;4.662;2024-02-21T15:10:00;11.32;76.07
78315;SHT31;68596;52.080;4.662;2024-02-21T15:12:45;11.32;76.34
78315;SHT31;68596;52.080;4.662;2024-02-21T15:15:30;11.23;76.45
78315;SHT31;68596;52.080;4.662;2024-02-21T15:18:14;11.23;76.74
78315;SHT31;68596;52.080;4.662;2024-02-21T15:21:02;11.21;76.92
78315;SHT31;68596;52.080;4.662;2024-02-21T15:23:47;11.20;77.10
78315;SHT31;68596;52.080;4.662;2024-02-21T15:26:31;11.23;77.19
78315;SHT31;68596;52.080;4.662;2024-02-21T15:29:16;11.21;77.17
78315;SHT31;68596;52.080;4.662;2024-02-21T15:32:00;11.21;77.31
78315;SHT31;68596;52.080;4.662;2024-02-21T15:34:44;11.18;77.31
78315;SHT31;68596;52.080;4.662;2024-02-21T15:37:28;11.20;77.39
78315;SHT31;68596;52.080;4.662;2024-02-21T15:40:13;11.15;77.52
78315;SHT31;68596;52.080;4.662;2024-02-21T15:42:58;11.15;77.67
78315;SHT31;68596;52.080;4.662;2024-02-21T15:45:42;11.15;77.71
78315;SHT31;68596;52.080;4.662;2024-02-21T15:48:26;11.15;77.82
78315;SHT31;68596;52.080;4.662;2024-02-21T15:51:10;11.17;77.89
78315;SHT31;68596;52.080;4.662;2024-02-21T15:53:54;11.15;77.91
78315;SHT31;68596;52.080;4.662;2024-02-21T15:56:38;11.14;78.05
78315;SHT31;68596;52.080;4.662;2024-02-21T15:59:22;11.14;78.14
78315;SHT31;68596;52.080;4.662;2024-02-21T16:02:07;11.15;78.10
78315;SHT31;68596;52.080;4.662;2024-02-21T16:04:51;11.08;78.34
78315;SHT31;68596;52.080;4.662;2024-02-21T16:07:35;11.08;78.43
78315;SHT31;68596;52.080;4.662;2024-02-21T16:10:20;11.07;78.52
78315;SHT31;68596;52.080;4.662;2024-02-21T16:13:04;11.04;78.60
78315;SHT31;68596;52.080;4.662;2024-02-21T16:15:49;11.06;78.71
78315;SHT31;68596;52.080;4.662;2024-02-21T16:18:33;11.04;78.59
78315;SHT31;68596;52.080;4.662;2024-02-21T16:21:17;11.04;78.74
78315;SHT31;68596;52.080;4.662;2024-02-21T16:24:01;11.04;78.75
78315;SHT31;68596;52.080;4.662;2024-02-21T16:26:46;11.06;78.77
78315;SHT31;68596;52.080;4.662;2024-02-21T16:29:29;11.08;78.71
78315;SHT31;68596;52.080;4.662;2024-02-21T16:32:13;11.07;78.64
78315;SHT31;68596;52.080;4.662;2024-02-21T16:34:57;11.08;78.73
78315;SHT31;68596;52.080;4.662;2024-02-21T16:37:42;11.08;78.78
78315;SHT31;68596;52.080;4.662;2024-02-21T16:40:26;11.13;78.73
78315;SHT31;68596;52.080;4.662;2024-02-21T16:43:11;11.15;78.78
78315;SHT31;68596;52.080;4.662;2024-02-21T16:45:55;11.17;78.63
78315;SHT31;68596;52.080;4.662;2024-02-21T16:48:40;11.15;78.68
78315;SHT31;68596;52.080;4.662;2024-02-21T16:51:24;11.13;78.78
78315;SHT31;68596;52.080;4.662;2024-02-21T16:54:08;11.11;78.90
78315;SHT31;68596;52.080;4.662;2024-02-21T16:56:53;11.07;78.97
78315;SHT31;68596;52.080;4.662;2024-02-21T16:59:37;11.10;79.15
78315;SHT31;68596;52.080;4.662;2024-02-21T17:02:22;11.08;78.96
78315;SHT31;68596;52.080;4.662;2024-02-21T17:05:07;11.10;79.03
78315;SHT31;68596;52.080;4.662;2024-02-21T17:07:52;11.11;78.99
78315;SHT31;68596;52.080;4.662;2024-02-21T17:10:36;11.13;79.01
78315;SHT31;68596;52.080;4.662;2024-02-21T17:13:20;11.14;79.06
78315;SHT31;68596;52.080;4.662;2024-02-21T17:16:07;11.14;79.05
78315;SHT31;68596;52.080;4.662;2024-02-21T17:18:53;11.14;79.16
78315;SHT31;68596;52.080;4.662;2024-02-21T17:21:37;11.07;79.19
78315;SHT31;68596;52.080;4.662;2024-02-21T17:24:21;11.10;79.27